sensor_id;sensor_type;location;lat;lon;timestamp;P1;durP1;ratioP1;P2;durP2;ratioP2
12316;SDS011;6222;50.866;6.744;2022-07-23T00:02:26;14.23;;;11.93;;
12316;SDS011;6222;50.866;6.744;2022-07-23T00:04:54;17.70;;;13.20;;
12316;SDS011;6222;50.866;6.744;2022-07-23T00:07:21;18.52;;;13.90;;
12316;SDS011;6222;50.866;6.744;2022-07-23T00:09:49;18.13;;;13.50;;
12316;SDS011;6222;50.866;6.744;2022-07-23T00:12:16;17.35;;;12.77;;
12316;SDS011;6222;50.866;6.744;2022-07-23T00:14:43;16.25;;;12.00;;
12316;SDS011;6222;50.866;6.744;2022-07-23T00:17:10;15.75;;;12.00;;
12316;SDS011;6222;50.866;6.744;2022-07-23T00:19:37;16.02;;;12.30;;
12316;SDS011;6222;50.866;6.744;2022-07-23T00:22:06;16.15;;;12.10;;
12316;SDS011;6222;50.866;6.744;2022-07-23T00:24:33;16.02;;;11.93;;
12316;SDS011;6222;50.866;6.744;2022-07-23T00:27:00;15.65;;;11.43;;
12316;SDS011;6222;50.866;6.744;2022-07-23T00:29:27;16.33;;;11.83;;
12316;SDS011;6222;50.866;6.744;2022-07-23T00:31:54;16.05;;;12.23;;
12316;SDS011;6222;50.866;6.744;2022-07-23T00:34:21;17.95;;;11.52;;
12316;SDS011;6222;50.866;6.744;2022-07-23T00:36:48;18.35;;;11.93;;
12316;SDS011;6222;50.866;6.744;2022-07-23T00:39:19;15.80;;;11.63;;
12316;SDS011;6222;50.866;6.744;2022-07-23T00:41:47;17.15;;;11.43;;
12316;SDS011;6222;50.866;6.744;2022-07-23T00:44:15;17.60;;;11.57;;
12316;SDS011;6222;50.866;6.744;2022-07-23T00:46:44;16.55;;;11.75;;
12316;SDS011;6222;50.866;6.744;2022-07-23T00:49:12;16.98;;;12.15;;
12316;SDS011;6222;50.866;6.744;2022-07-23T00:51:39;19.02;;;12.35;;
12316;SDS011;6222;50.866;6.744;2022-07-23T00:54:06;20.10;;;12.47;;
12316;SDS011;6222;50.866;6.744;2022-07-23T00:56:34;20.15;;;12.15;;
12316;SDS011;6222;50.866;6.744;2022-07-23T00:59:01;17.07;;;12.40;;
12316;SDS011;6222;50.866;6.744;2022-07-23T01:01:29;17.02;;;12.02;;
12316;SDS011;6222;50.866;6.744;2022-07-23T01:03:56;15.02;;;11.02;;
12316;SDS011;6222;50.866;6.744;2022-07-23T01:06:23;17.42;;;11.93;;
12316;SDS011;6222;50.866;6.744;2022-07-23T01:08:50;18.13;;;11.60;;
12316;SDS011;6222;50.866;6.744;2022-07-23T01:11:17;18.88;;;11.70;;
12316;SDS011;6222;50.866;6.744;2022-07-23T01:13:46;15.13;;;10.75;;
12316;SDS011;6222;50.866;6.744;2022-07-23T01:16:14;16.15;;;10.68;;
12316;SDS011;6222;50.866;6.744;2022-07-23T01:18:41;16.95;;;10.43;;
12316;SDS011;6222;50.866;6.744;2022-07-23T01:21:08;18.20;;;11.63;;
12316;SDS011;6222;50.866;6.744;2022-07-23T01:23:39;16.95;;;11.35;;
12316;SDS011;6222;50.866;6.744;2022-07-23T01:26:06;17.13;;;11.82;;
12316;SDS011;6222;50.866;6.744;2022-07-23T01:28:33;15.25;;;11.07;;
12316;SDS011;6222;50.866;6.744;2022-07-23T01:31:00;15.20;;;10.88;;
12316;SDS011;6222;50.866;6.744;2022-07-23T01:33:28;15.95;;;11.25;;
12316;SDS011;6222;50.866;6.744;2022-07-23T01:35:55;15.57;;;11.27;;
12316;SDS011;6222;50.866;6.744;2022-07-23T01:38:22;18.87;;;11.70;;
12316;SDS011;6222;50.866;6.744;2022-07-23T01:40:51;19.45;;;12.05;;
12316;SDS011;6222;50.866;6.744;2022-07-23T01:43:18;18.90;;;12.30;;
12316;SDS011;6222;50.866;6.744;2022-07-23T01:45:45;19.67;;;12.48;;
12316;SDS011;6222;50.866;6.744;2022-07-23T01:48:12;18.75;;;12.45;;
12316;SDS011;6222;50.866;6.744;2022-07-23T01:50:40;19.45;;;12.48;;
12316;SDS011;6222;50.866;6.744;2022-07-23T01:53:07;16.88;;;11.90;;
12316;SDS011;6222;50.866;6.744;2022-07-23T01:55:34;18.70;;;12.30;;
12316;SDS011;6222;50.866;6.744;2022-07-23T01:58:03;17.88;;;13.10;;
12316;SDS011;6222;50.866;6.744;2022-07-23T02:00:30;19.33;;;13.52;;
12316;SDS011;6222;50.866;6.744;2022-07-23T02:02:57;19.70;;;13.70;;
12316;SDS011;6222;50.866;6.744;2022-07-23T02:05:25;19.20;;;13.70;;
12316;SDS011;6222;50.866;6.744;2022-07-23T02:07:53;19.42;;;14.38;;
12316;SDS011;6222;50.866;6.744;2022-07-23T02:10:20;20.17;;;14.50;;
12316;SDS011;6222;50.866;6.744;2022-07-23T02:12:47;18.70;;;14.10;;
12316;SDS011;6222;50.866;6.744;2022-07-23T02:15:16;21.27;;;14.93;;
12316;SDS011;6222;50.866;6.744;2022-07-23T02:17:43;21.67;;;16.00;;
12316;SDS011;6222;50.866;6.744;2022-07-23T02:20:10;18.13;;;14.48;;
12316;SDS011;6222;50.866;6.744;2022-07-23T02:22:38;20.08;;;14.68;;
12316;SDS011;6222;50.866;6.744;2022-07-23T02:25:06;20.17;;;14.67;;
12316;SDS011;6222;50.866;6.744;2022-07-23T02:27:33;20.25;;;14.50;;
12316;SDS011;6222;50.866;6.744;2022-07-23T02:30:01;20.25;;;15.43;;
12316;SDS011;6222;50.866;6.744;2022-07-23T02:32:29;18.02;;;14.05;;
12316;SDS011;6222;50.866;6.744;2022-07-23T02:34:56;20.50;;;14.25;;
12316;SDS011;6222;50.866;6.744;2022-07-23T02:37:23;18.75;;;14.25;;
12316;SDS011;6222;50.866;6.744;2022-07-23T02:39:50;21.92;;;15.30;;
12316;SDS011;6222;50.866;6.744;2022-07-23T02:42:17;17.85;;;13.40;;
12316;SDS011;6222;50.866;6.744;2022-07-23T02:44:45;19.23;;;13.95;;
12316;SDS011;6222;50.866;6.744;2022-07-23T02:47:12;19.25;;;14.57;;
12316;SDS011;6222;50.866;6.744;2022-07-23T02:49:40;19.87;;;14.13;;
12316;SDS011;6222;50.866;6.744;2022-07-23T02:52:07;18.58;;;14.07;;
12316;SDS011;6222;50.866;6.744;2022-07-23T02:54:36;18.60;;;14.32;;
12316;SDS011;6222;50.866;6.744;2022-07-23T02:57:03;17.73;;;13.67;;
12316;SDS011;6222;50.866;6.744;2022-07-23T02:59:30;19.50;;;13.60;;
12316;SDS011;6222;50.866;6.744;2022-07-23T03:01:57;19.25;;;14.38;;
12316;SDS011;6222;50.866;6.744;2022-07-23T03:04:24;19.15;;;14.25;;
12316;SDS011;6222;50.866;6.744;2022-07-23T03:06:53;19.87;;;14.27;;
12316;SDS011;6222;50.866;6.744;2022-07-23T03:09:20;20.23;;;14.75;;
12316;SDS011;6222;50.866;6.744;2022-07-23T03:11:47;18.67;;;14.07;;
12316;SDS011;6222;50.866;6.744;2022-07-23T03:14:14;18.90;;;14.65;;
12316;SDS011;6222;50.866;6.744;2022-07-23T03:16:42;18.23;;;13.98;;
12316;SDS011;6222;50.866;6.744;2022-07-23T03:19:09;19.77;;;14.50;;
12316;SDS011;6222;50.866;6.744;2022-07-23T03:21:36;19.63;;;15.00;;
12316;SDS011;6222;50.866;6.744;2022-07-23T03:24:07;19.77;;;15.00;;
12316;SDS011;6222;50.866;6.744;2022-07-23T03:26:34;21.05;;;14.93;;
12316;SDS011;6222;50.866;6.744;2022-07-23T03:29:02;20.42;;;15.43;;
12316;SDS011;6222;50.866;6.744;2022-07-23T03:31:29;21.38;;;15.68;;
12316;SDS011;6222;50.866;6.744;2022-07-23T03:33:56;22.63;;;15.95;;
12316;SDS011;6222;50.866;6.744;2022-07-23T03:36:23;22.02;;;16.52;;
12316;SDS011;6222;50.866;6.744;2022-07-23T03:38:51;20.75;;;15.23;;
12316;SDS011;6222;50.866;6.744;2022-07-23T03:41:19;21.05;;;15.55;;
12316;SDS011;6222;50.866;6.744;2022-07-23T03:43:47;20.40;;;13.20;;
12316;SDS011;6222;50.866;6.744;2022-07-23T03:46:14;21.35;;;13.80;;
12316;SDS011;6222;50.866;6.744;2022-07-23T03:48:41;19.80;;;13.00;;
12316;SDS011;6222;50.866;6.744;2022-07-23T03:51:08;18.80;;;13.57;;
12316;SDS011;6222;50.866;6.744;2022-07-23T03:53:35;19.45;;;12.88;;
12316;SDS011;6222;50.866;6.744;2022-07-23T03:56:02;18.37;;;13.13;;
12316;SDS011;6222;50.866;6.744;2022-07-23T03:58:31;19.83;;;13.57;;
12316;SDS011;6222;50.866;6.744;2022-07-23T04:00:58;20.02;;;13.38;;
12316;SDS011;6222;50.866;6.744;2022-07-23T04:03:25;21.00;;;14.18;;
12316;SDS011;6222;50.866;6.744;2022-07-23T04:05:52;20.48;;;13.90;;
12316;SDS011;6222;50.866;6.744;2022-07-23T04:08:20;20.02;;;13.45;;
12316;SDS011;6222;50.866;6.744;2022-07-23T04:10:47;18.90;;;13.90;;
12316;SDS011;6222;50.866;6.744;2022-07-23T04:13:14;19.95;;;13.43;;
12316;SDS011;6222;50.866;6.744;2022-07-23T04:15:42;20.15;;;13.00;;
12316;SDS011;6222;50.866;6.744;2022-07-23T04:18:09;21.40;;;13.37;;
12316;SDS011;6222;50.866;6.744;2022-07-23T04:20:37;20.70;;;13.10;;
12316;SDS011;6222;50.866;6.744;2022-07-23T04:23:04;18.60;;;12.52;;
12316;SDS011;6222;50.866;6.744;2022-07-23T04:25:31;17.63;;;12.13;;
12316;SDS011;6222;50.866;6.744;2022-07-23T04:27:58;18.55;;;12.50;;
12316;SDS011;6222;50.866;6.744;2022-07-23T04:30:25;17.20;;;12.70;;
12316;SDS011;6222;50.866;6.744;2022-07-23T04:32:54;19.77;;;13.32;;
12316;SDS011;6222;50.866;6.744;2022-07-23T04:35:21;19.27;;;12.98;;
12316;SDS011;6222;50.866;6.744;2022-07-23T04:37:48;18.75;;;12.90;;
12316;SDS011;6222;50.866;6.744;2022-07-23T04:40:15;17.73;;;12.60;;
12316;SDS011;6222;50.866;6.744;2022-07-23T04:42:42;20.65;;;13.80;;
12316;SDS011;6222;50.866;6.744;2022-07-23T04:45:09;21.55;;;14.52;;
12316;SDS011;6222;50.866;6.744;2022-07-23T04:47:37;24.38;;;15.20;;
12316;SDS011;6222;50.866;6.744;2022-07-23T04:50:05;21.58;;;15.05;;
12316;SDS011;6222;50.866;6.744;2022-07-23T04:52:32;22.90;;;14.70;;
12316;SDS011;6222;50.866;6.744;2022-07-23T04:55:00;21.30;;;14.80;;
12316;SDS011;6222;50.866;6.744;2022-07-23T04:57:27;24.70;;;16.00;;
12316;SDS011;6222;50.866;6.744;2022-07-23T04:59:54;26.40;;;16.73;;
12316;SDS011;6222;50.866;6.744;2022-07-23T05:02:21;25.52;;;16.75;;
12316;SDS011;6222;50.866;6.744;2022-07-23T05:04:48;23.55;;;15.95;;
12316;SDS011;6222;50.866;6.744;2022-07-23T05:07:17;25.35;;;16.45;;
12316;SDS011;6222;50.866;6.744;2022-07-23T05:09:44;24.65;;;15.85;;
12316;SDS011;6222;50.866;6.744;2022-07-23T05:12:11;23.27;;;15.68;;
12316;SDS011;6222;50.866;6.744;2022-07-23T05:14:38;26.35;;;16.30;;
12316;SDS011;6222;50.866;6.744;2022-07-23T05:17:05;23.08;;;15.57;;
12316;SDS011;6222;50.866;6.744;2022-07-23T05:19:33;25.00;;;15.55;;
12316;SDS011;6222;50.866;6.744;2022-07-23T05:22:00;22.20;;;15.23;;
12316;SDS011;6222;50.866;6.744;2022-07-23T05:24:28;18.92;;;13.65;;
12316;SDS011;6222;50.866;6.744;2022-07-23T05:26:56;22.67;;;14.90;;
12316;SDS011;6222;50.866;6.744;2022-07-23T05:29:23;24.73;;;15.35;;
12316;SDS011;6222;50.866;6.744;2022-07-23T05:31:50;22.90;;;16.45;;
12316;SDS011;6222;50.866;6.744;2022-07-23T05:34:17;22.40;;;16.17;;
12316;SDS011;6222;50.866;6.744;2022-07-23T05:36:44;22.83;;;15.73;;
12316;SDS011;6222;50.866;6.744;2022-07-23T05:39:11;23.50;;;16.42;;
12316;SDS011;6222;50.866;6.744;2022-07-23T05:41:40;22.80;;;16.40;;
12316;SDS011;6222;50.866;6.744;2022-07-23T05:44:07;25.58;;;17.05;;
12316;SDS011;6222;50.866;6.744;2022-07-23T05:46:34;23.93;;;16.63;;
12316;SDS011;6222;50.866;6.744;2022-07-23T05:49:01;25.08;;;16.73;;
12316;SDS011;6222;50.866;6.744;2022-07-23T05:51:28;25.15;;;16.52;;
12316;SDS011;6222;50.866;6.744;2022-07-23T05:53:55;23.33;;;16.02;;
12316;SDS011;6222;50.866;6.744;2022-07-23T05:56:22;24.02;;;17.05;;
12316;SDS011;6222;50.866;6.744;2022-07-23T05:58:51;25.00;;;16.30;;
12316;SDS011;6222;50.866;6.744;2022-07-23T06:01:18;23.77;;;17.33;;
12316;SDS011;6222;50.866;6.744;2022-07-23T06:03:45;25.55;;;18.00;;
12316;SDS011;6222;50.866;6.744;2022-07-23T06:06:12;26.83;;;18.48;;
12316;SDS011;6222;50.866;6.744;2022-07-23T06:08:39;27.73;;;18.23;;
12316;SDS011;6222;50.866;6.744;2022-07-23T06:11:06;25.67;;;18.23;;
12316;SDS011;6222;50.866;6.744;2022-07-23T06:13:34;28.43;;;18.97;;
12316;SDS011;6222;50.866;6.744;2022-07-23T06:16:02;24.73;;;18.10;;
12316;SDS011;6222;50.866;6.744;2022-07-23T06:18:29;26.58;;;19.05;;
12316;SDS011;6222;50.866;6.744;2022-07-23T06:20:58;26.55;;;18.13;;
12316;SDS011;6222;50.866;6.744;2022-07-23T06:23:25;28.05;;;18.63;;
12316;SDS011;6222;50.866;6.744;2022-07-23T06:25:52;26.83;;;18.83;;
12316;SDS011;6222;50.866;6.744;2022-07-23T06:28:19;26.03;;;18.57;;
12316;SDS011;6222;50.866;6.744;2022-07-23T06:30:46;24.65;;;17.50;;
12316;SDS011;6222;50.866;6.744;2022-07-23T06:33:15;24.85;;;17.05;;
12316;SDS011;6222;50.866;6.744;2022-07-23T06:35:43;24.65;;;17.27;;
12316;SDS011;6222;50.866;6.744;2022-07-23T06:38:10;24.25;;;17.48;;
12316;SDS011;6222;50.866;6.744;2022-07-23T06:40:37;25.93;;;17.27;;
12316;SDS011;6222;50.866;6.744;2022-07-23T06:43:05;23.05;;;16.25;;
12316;SDS011;6222;50.866;6.744;2022-07-23T06:45:32;23.73;;;15.93;;
12316;SDS011;6222;50.866;6.744;2022-07-23T06:47:59;21.80;;;15.18;;
12316;SDS011;6222;50.866;6.744;2022-07-23T06:50:28;24.92;;;16.20;;
12316;SDS011;6222;50.866;6.744;2022-07-23T06:52:55;23.23;;;16.45;;
12316;SDS011;6222;50.866;6.744;2022-07-23T06:55:22;20.25;;;15.60;;
12316;SDS011;6222;50.866;6.744;2022-07-23T06:57:49;22.02;;;15.55;;
12316;SDS011;6222;50.866;6.744;2022-07-23T07:00:17;21.55;;;15.43;;
12316;SDS011;6222;50.866;6.744;2022-07-23T07:02:44;21.23;;;16.85;;
12316;SDS011;6222;50.866;6.744;2022-07-23T07:05:11;20.17;;;15.65;;
12316;SDS011;6222;50.866;6.744;2022-07-23T07:07:40;19.88;;;15.73;;
12316;SDS011;6222;50.866;6.744;2022-07-23T07:10:07;21.23;;;15.10;;
12316;SDS011;6222;50.866;6.744;2022-07-23T07:12:34;21.95;;;15.68;;
12316;SDS011;6222;50.866;6.744;2022-07-23T07:15:01;20.52;;;15.07;;
12316;SDS011;6222;50.866;6.744;2022-07-23T07:17:28;21.13;;;14.93;;
12316;SDS011;6222;50.866;6.744;2022-07-23T07:19:56;20.00;;;14.93;;
12316;SDS011;6222;50.866;6.744;2022-07-23T07:22:23;20.02;;;14.70;;
12316;SDS011;6222;50.866;6.744;2022-07-23T07:24:51;20.77;;;14.35;;
12316;SDS011;6222;50.866;6.744;2022-07-23T07:27:18;19.35;;;14.35;;
12316;SDS011;6222;50.866;6.744;2022-07-23T07:29:46;18.85;;;14.38;;
12316;SDS011;6222;50.866;6.744;2022-07-23T07:32:13;19.50;;;14.88;;
12316;SDS011;6222;50.866;6.744;2022-07-23T07:34:40;18.05;;;13.95;;
12316;SDS011;6222;50.866;6.744;2022-07-23T07:37:07;22.45;;;15.30;;
12316;SDS011;6222;50.866;6.744;2022-07-23T07:39:34;17.83;;;13.63;;
12316;SDS011;6222;50.866;6.744;2022-07-23T07:42:03;17.73;;;12.65;;
12316;SDS011;6222;50.866;6.744;2022-07-23T07:44:30;15.07;;;10.93;;
12316;SDS011;6222;50.866;6.744;2022-07-23T07:46:57;15.38;;;11.57;;
12316;SDS011;6222;50.866;6.744;2022-07-23T07:49:24;14.82;;;11.80;;
12316;SDS011;6222;50.866;6.744;2022-07-23T07:51:51;13.65;;;11.02;;
12316;SDS011;6222;50.866;6.744;2022-07-23T07:54:19;17.15;;;12.43;;
12316;SDS011;6222;50.866;6.744;2022-07-23T07:56:46;16.60;;;12.13;;
12316;SDS011;6222;50.866;6.744;2022-07-23T07:59:15;17.83;;;12.90;;
12316;SDS011;6222;50.866;6.744;2022-07-23T08:01:42;16.40;;;12.37;;
12316;SDS011;6222;50.866;6.744;2022-07-23T08:04:09;17.75;;;13.18;;
12316;SDS011;6222;50.866;6.744;2022-07-23T08:06:36;18.25;;;12.45;;
12316;SDS011;6222;50.866;6.744;2022-07-23T08:09:04;17.45;;;12.55;;
12316;SDS011;6222;50.866;6.744;2022-07-23T08:11:31;17.40;;;12.83;;
12316;SDS011;6222;50.866;6.744;2022-07-23T08:13:58;17.60;;;13.32;;
12316;SDS011;6222;50.866;6.744;2022-07-23T08:16:26;18.10;;;13.20;;
12316;SDS011;6222;50.866;6.744;2022-07-23T08:18:54;18.02;;;14.15;;
12316;SDS011;6222;50.866;6.744;2022-07-23T08:21:21;19.92;;;14.07;;
12316;SDS011;6222;50.866;6.744;2022-07-23T08:23:48;20.10;;;15.00;;
12316;SDS011;6222;50.866;6.744;2022-07-23T08:26:15;21.40;;;15.13;;
12316;SDS011;6222;50.866;6.744;2022-07-23T08:28:42;20.90;;;15.43;;
12316;SDS011;6222;50.866;6.744;2022-07-23T08:31:09;19.60;;;15.57;;
12316;SDS011;6222;50.866;6.744;2022-07-23T08:33:38;18.50;;;15.10;;
12316;SDS011;6222;50.866;6.744;2022-07-23T08:36:06;20.20;;;16.10;;
12316;SDS011;6222;50.866;6.744;2022-07-23T08:38:33;20.45;;;16.00;;
12316;SDS011;6222;50.866;6.744;2022-07-23T08:41:01;20.25;;;16.80;;
12316;SDS011;6222;50.866;6.744;2022-07-23T08:43:30;21.92;;;16.77;;
12316;SDS011;6222;50.866;6.744;2022-07-23T08:45:58;20.35;;;16.52;;
12316;SDS011;6222;50.866;6.744;2022-07-23T08:48:26;21.10;;;17.60;;
12316;SDS011;6222;50.866;6.744;2022-07-23T08:50:57;20.85;;;16.88;;
12316;SDS011;6222;50.866;6.744;2022-07-23T08:53:24;19.15;;;16.02;;
12316;SDS011;6222;50.866;6.744;2022-07-23T08:55:52;20.92;;;16.02;;
12316;SDS011;6222;50.866;6.744;2022-07-23T08:58:20;19.38;;;16.50;;
12316;SDS011;6222;50.866;6.744;2022-07-23T09:00:48;20.75;;;17.27;;
12316;SDS011;6222;50.866;6.744;2022-07-23T09:03:16;18.93;;;16.73;;
12316;SDS011;6222;50.866;6.744;2022-07-23T09:05:43;19.10;;;15.70;;
12316;SDS011;6222;50.866;6.744;2022-07-23T09:08:12;19.08;;;15.98;;
12316;SDS011;6222;50.866;6.744;2022-07-23T09:10:44;20.65;;;15.80;;
12316;SDS011;6222;50.866;6.744;2022-07-23T09:13:24;19.35;;;15.65;;
12316;SDS011;6222;50.866;6.744;2022-07-23T09:15:52;23.13;;;17.13;;
12316;SDS011;6222;50.866;6.744;2022-07-23T09:18:27;18.85;;;15.45;;
12316;SDS011;6222;50.866;6.744;2022-07-23T09:21:04;18.42;;;15.52;;
12316;SDS011;6222;50.866;6.744;2022-07-23T09:23:37;17.23;;;14.73;;
12316;SDS011;6222;50.866;6.744;2022-07-23T09:26:12;17.52;;;15.57;;
12316;SDS011;6222;50.866;6.744;2022-07-23T09:28:50;19.38;;;14.57;;
12316;SDS011;6222;50.866;6.744;2022-07-23T09:31:18;17.02;;;15.00;;
12316;SDS011;6222;50.866;6.744;2022-07-23T09:33:45;22.05;;;15.80;;
12316;SDS011;6222;50.866;6.744;2022-07-23T09:36:12;16.88;;;14.98;;
12316;SDS011;6222;50.866;6.744;2022-07-23T09:38:48;15.35;;;13.75;;
12316;SDS011;6222;50.866;6.744;2022-07-23T09:41:16;17.45;;;13.80;;
12316;SDS011;6222;50.866;6.744;2022-07-23T09:43:43;17.10;;;13.32;;
12316;SDS011;6222;50.866;6.744;2022-07-23T09:46:17;13.87;;;12.33;;
12316;SDS011;6222;50.866;6.744;2022-07-23T09:48:44;15.88;;;13.35;;
12316;SDS011;6222;50.866;6.744;2022-07-23T09:51:11;16.15;;;13.93;;
12316;SDS011;6222;50.866;6.744;2022-07-23T09:53:39;13.07;;;11.57;;
12316;SDS011;6222;50.866;6.744;2022-07-23T09:56:08;14.70;;;12.70;;
12316;SDS011;6222;50.866;6.744;2022-07-23T09:58:36;15.75;;;12.32;;
12316;SDS011;6222;50.866;6.744;2022-07-23T10:01:10;16.45;;;13.80;;
12316;SDS011;6222;50.866;6.744;2022-07-23T10:03:39;14.02;;;12.35;;
12316;SDS011;6222;50.866;6.744;2022-07-23T10:06:07;15.65;;;13.13;;
12316;SDS011;6222;50.866;6.744;2022-07-23T10:08:35;16.77;;;13.63;;
12316;SDS011;6222;50.866;6.744;2022-07-23T10:11:02;18.60;;;14.25;;
12316;SDS011;6222;50.866;6.744;2022-07-23T10:13:31;15.25;;;11.48;;
12316;SDS011;6222;50.866;6.744;2022-07-23T10:16:19;13.55;;;11.32;;
12316;SDS011;6222;50.866;6.744;2022-07-23T10:18:47;15.60;;;12.27;;
12316;SDS011;6222;50.866;6.744;2022-07-23T10:21:16;14.55;;;11.82;;
12316;SDS011;6222;50.866;6.744;2022-07-23T10:23:45;14.38;;;12.88;;
12316;SDS011;6222;50.866;6.744;2022-07-23T10:26:17;14.07;;;11.23;;
12316;SDS011;6222;50.866;6.744;2022-07-23T10:28:51;12.63;;;10.77;;
12316;SDS011;6222;50.866;6.744;2022-07-23T10:31:26;12.60;;;10.70;;
12316;SDS011;6222;50.866;6.744;2022-07-23T10:33:56;13.00;;;10.43;;
12316;SDS011;6222;50.866;6.744;2022-07-23T10:36:27;13.05;;;10.85;;
12316;SDS011;6222;50.866;6.744;2022-07-23T10:38:57;13.30;;;11.80;;
12316;SDS011;6222;50.866;6.744;2022-07-23T10:41:31;15.20;;;11.60;;
12316;SDS011;6222;50.866;6.744;2022-07-23T10:44:07;13.13;;;11.60;;
12316;SDS011;6222;50.866;6.744;2022-07-23T10:46:34;13.45;;;10.98;;
12316;SDS011;6222;50.866;6.744;2022-07-23T10:49:22;13.43;;;10.80;;
12316;SDS011;6222;50.866;6.744;2022-07-23T10:54:36;11.77;;;9.15;;
12316;SDS011;6222;50.866;6.744;2022-07-23T10:57:04;11.77;;;9.45;;
12316;SDS011;6222;50.866;6.744;2022-07-23T11:02:22;12.07;;;9.13;;
12316;SDS011;6222;50.866;6.744;2022-07-23T11:04:51;11.52;;;10.32;;
12316;SDS011;6222;50.866;6.744;2022-07-23T11:07:18;9.77;;;8.57;;
12316;SDS011;6222;50.866;6.744;2022-07-23T11:09:46;10.52;;;9.43;;
12316;SDS011;6222;50.866;6.744;2022-07-23T11:12:31;10.02;;;8.15;;
12316;SDS011;6222;50.866;6.744;2022-07-23T11:15:00;13.77;;;10.00;;
12316;SDS011;6222;50.866;6.744;2022-07-23T11:17:29;12.70;;;9.60;;
12316;SDS011;6222;50.866;6.744;2022-07-23T11:20:13;11.43;;;9.17;;
12316;SDS011;6222;50.866;6.744;2022-07-23T11:22:46;9.40;;;7.63;;
12316;SDS011;6222;50.866;6.744;2022-07-23T11:25:14;7.70;;;6.53;;
12316;SDS011;6222;50.866;6.744;2022-07-23T11:27:41;7.10;;;6.35;;
12316;SDS011;6222;50.866;6.744;2022-07-23T11:30:09;9.07;;;7.50;;
12316;SDS011;6222;50.866;6.744;2022-07-23T11:32:39;8.88;;;7.03;;
12316;SDS011;6222;50.866;6.744;2022-07-23T11:35:26;8.05;;;6.35;;
12316;SDS011;6222;50.866;6.744;2022-07-23T11:38:02;7.00;;;6.05;;
12316;SDS011;6222;50.866;6.744;2022-07-23T11:40:30;8.73;;;6.18;;
12316;SDS011;6222;50.866;6.744;2022-07-23T11:42:58;9.63;;;7.57;;
12316;SDS011;6222;50.866;6.744;2022-07-23T11:45:28;11.15;;;6.97;;
12316;SDS011;6222;50.866;6.744;2022-07-23T11:47:57;8.10;;;6.35;;
12316;SDS011;6222;50.866;6.744;2022-07-23T11:50:24;8.15;;;6.45;;
12316;SDS011;6222;50.866;6.744;2022-07-23T11:52:52;7.72;;;6.32;;
12316;SDS011;6222;50.866;6.744;2022-07-23T11:55:19;9.27;;;7.07;;
12316;SDS011;6222;50.866;6.744;2022-07-23T11:57:47;7.90;;;6.45;;
12316;SDS011;6222;50.866;6.744;2022-07-23T12:00:15;7.70;;;6.38;;
12316;SDS011;6222;50.866;6.744;2022-07-23T12:02:43;7.05;;;6.35;;
12316;SDS011;6222;50.866;6.744;2022-07-23T12:05:13;8.20;;;6.40;;
12316;SDS011;6222;50.866;6.744;2022-07-23T12:07:40;9.25;;;6.45;;
12316;SDS011;6222;50.866;6.744;2022-07-23T12:10:10;6.70;;;5.28;;
12316;SDS011;6222;50.866;6.744;2022-07-23T12:12:38;6.78;;;5.47;;
12316;SDS011;6222;50.866;6.744;2022-07-23T12:15:06;7.22;;;5.32;;
12316;SDS011;6222;50.866;6.744;2022-07-23T12:17:34;6.85;;;5.07;;
12316;SDS011;6222;50.866;6.744;2022-07-23T12:20:02;6.57;;;5.05;;
12316;SDS011;6222;50.866;6.744;2022-07-23T12:22:34;7.93;;;6.57;;
12316;SDS011;6222;50.866;6.744;2022-07-23T12:25:03;6.75;;;5.45;;
12316;SDS011;6222;50.866;6.744;2022-07-23T12:27:31;6.72;;;5.65;;
12316;SDS011;6222;50.866;6.744;2022-07-23T12:29:58;6.05;;;5.45;;
12316;SDS011;6222;50.866;6.744;2022-07-23T12:32:26;5.10;;;4.43;;
12316;SDS011;6222;50.866;6.744;2022-07-23T12:35:02;5.47;;;4.25;;
12316;SDS011;6222;50.866;6.744;2022-07-23T12:37:31;7.88;;;5.47;;
12316;SDS011;6222;50.866;6.744;2022-07-23T12:42:42;8.27;;;5.07;;
12316;SDS011;6222;50.866;6.744;2022-07-23T12:45:10;5.28;;;4.32;;
12316;SDS011;6222;50.866;6.744;2022-07-23T12:47:58;5.30;;;4.10;;
12316;SDS011;6222;50.866;6.744;2022-07-23T12:53:14;4.63;;;3.97;;
12316;SDS011;6222;50.866;6.744;2022-07-23T12:55:41;4.85;;;3.45;;
12316;SDS011;6222;50.866;6.744;2022-07-23T12:58:12;5.30;;;3.33;;
12316;SDS011;6222;50.866;6.744;2022-07-23T13:03:33;7.30;;;4.43;;
12316;SDS011;6222;50.866;6.744;2022-07-23T13:06:00;6.50;;;4.17;;
12316;SDS011;6222;50.866;6.744;2022-07-23T13:08:29;5.72;;;4.05;;
12316;SDS011;6222;50.866;6.744;2022-07-23T13:10:57;3.63;;;3.25;;
12316;SDS011;6222;50.866;6.744;2022-07-23T13:13:26;4.93;;;3.50;;
12316;SDS011;6222;50.866;6.744;2022-07-23T13:15:54;4.38;;;3.30;;
12316;SDS011;6222;50.866;6.744;2022-07-23T13:18:21;3.45;;;3.05;;
12316;SDS011;6222;50.866;6.744;2022-07-23T13:20:48;7.05;;;3.40;;
12316;SDS011;6222;50.866;6.744;2022-07-23T13:23:16;4.38;;;2.85;;
12316;SDS011;6222;50.866;6.744;2022-07-23T13:25:43;4.20;;;2.83;;
12316;SDS011;6222;50.866;6.744;2022-07-23T13:28:11;3.80;;;2.90;;
12316;SDS011;6222;50.866;6.744;2022-07-23T13:30:40;3.90;;;2.70;;
12316;SDS011;6222;50.866;6.744;2022-07-23T13:33:09;4.65;;;2.80;;
12316;SDS011;6222;50.866;6.744;2022-07-23T13:35:36;3.60;;;2.60;;
12316;SDS011;6222;50.866;6.744;2022-07-23T13:38:03;4.15;;;2.83;;
12316;SDS011;6222;50.866;6.744;2022-07-23T13:40:32;3.95;;;2.90;;
12316;SDS011;6222;50.866;6.744;2022-07-23T13:42:59;4.38;;;2.80;;
12316;SDS011;6222;50.866;6.744;2022-07-23T13:45:26;3.65;;;2.70;;
12316;SDS011;6222;50.866;6.744;2022-07-23T13:47:55;3.45;;;2.70;;
12316;SDS011;6222;50.866;6.744;2022-07-23T13:50:22;3.20;;;2.35;;
12316;SDS011;6222;50.866;6.744;2022-07-23T13:52:49;4.37;;;3.30;;
12316;SDS011;6222;50.866;6.744;2022-07-23T13:55:17;3.83;;;2.80;;
12316;SDS011;6222;50.866;6.744;2022-07-23T13:57:44;3.77;;;2.90;;
12316;SDS011;6222;50.866;6.744;2022-07-23T14:00:11;3.97;;;2.95;;
12316;SDS011;6222;50.866;6.744;2022-07-23T14:02:39;3.80;;;2.80;;
12316;SDS011;6222;50.866;6.744;2022-07-23T14:05:08;3.78;;;3.08;;
12316;SDS011;6222;50.866;6.744;2022-07-23T14:07:36;3.45;;;2.72;;
12316;SDS011;6222;50.866;6.744;2022-07-23T14:10:04;5.68;;;2.75;;
12316;SDS011;6222;50.866;6.744;2022-07-23T14:12:31;3.90;;;2.92;;
12316;SDS011;6222;50.866;6.744;2022-07-23T14:14:58;3.67;;;2.58;;
12316;SDS011;6222;50.866;6.744;2022-07-23T14:17:26;4.05;;;2.83;;
12316;SDS011;6222;50.866;6.744;2022-07-23T14:19:53;3.85;;;2.72;;
12316;SDS011;6222;50.866;6.744;2022-07-23T14:22:21;3.97;;;2.83;;
12316;SDS011;6222;50.866;6.744;2022-07-23T14:24:48;3.72;;;2.42;;
12316;SDS011;6222;50.866;6.744;2022-07-23T14:27:16;3.30;;;2.53;;
12316;SDS011;6222;50.866;6.744;2022-07-23T14:29:43;4.22;;;2.70;;
12316;SDS011;6222;50.866;6.744;2022-07-23T14:32:10;2.65;;;2.45;;
12316;SDS011;6222;50.866;6.744;2022-07-23T14:34:37;6.07;;;2.55;;
12316;SDS011;6222;50.866;6.744;2022-07-23T14:37:05;3.42;;;2.28;;
12316;SDS011;6222;50.866;6.744;2022-07-23T14:39:33;3.92;;;2.40;;
12316;SDS011;6222;50.866;6.744;2022-07-23T14:42:01;3.63;;;2.45;;
12316;SDS011;6222;50.866;6.744;2022-07-23T14:44:28;3.08;;;2.50;;
12316;SDS011;6222;50.866;6.744;2022-07-23T14:46:55;3.83;;;2.53;;
12316;SDS011;6222;50.866;6.744;2022-07-23T14:49:22;4.03;;;2.60;;
12316;SDS011;6222;50.866;6.744;2022-07-23T14:51:49;4.68;;;2.75;;
12316;SDS011;6222;50.866;6.744;2022-07-23T14:54:17;4.03;;;2.47;;
12316;SDS011;6222;50.866;6.744;2022-07-23T14:56:46;3.13;;;2.33;;
12316;SDS011;6222;50.866;6.744;2022-07-23T14:59:13;3.45;;;2.33;;
12316;SDS011;6222;50.866;6.744;2022-07-23T15:01:40;3.77;;;2.37;;